Data for 06/18/2017

Time Sea-Level Adjusted Pressure Absolute Pressure Temperature Relative Humidity Dew Point   
(mb) (inHg) (mb) (inHg) (C) (F) (%) (C) (F)
00:05 1020 30.12 850 25.1 11.4 52.5 58 3.5 38.3
00:10 1020 30.12 850 25.1 11.5 52.7 59 3.8 38.9
00:15 1020 30.12 850 25.1 11.3 52.4 60 4 39.1
00:20 1020 30.12 850 25.1 11.2 52.2 59 3.6 38.5
00:25 1020 30.12 850 25.1 11.3 52.3 56 2.9 37.3
00:30 1021 30.15 850 25.1 11.6 52.8 57 3.4 38.1
00:35 1020 30.12 850 25.1 11.5 52.8 58 3.6 38.4
00:40 1021 30.15 850 25.1 11.4 52.6 57 3.3 38
00:45 1021 30.15 850 25.1 11.4 52.6 58 3.6 38.5
00:50 1020 30.12 850 25.1 11.3 52.3 60 3.8 38.9
00:55 1020 30.12 850 25.1 11.2 52.1 60 3.8 38.9
01:00 1020 30.12 850 25.1 11.1 51.9 61 3.9 39
01:05 1020 30.12 850 25.1 11.1 51.9 62 4 39.2
01:10 1020 30.12 850 25.1 11.1 51.9 61 3.9 39
01:15 1020 30.12 850 25.1 11.1 51.9 61 3.8 38.9
01:20 1020 30.12 850 25.1 11.1 51.9 63 4.4 39.9
01:25 1020 30.12 850 25.1 10.8 51.5 63 4.1 39.4
01:30 1020 30.12 850 25.1 10.9 51.5 63 4.2 39.6
01:35 1021 30.15 850 25.1 10.9 51.6 63 4.3 39.7
01:40 1021 30.15 850 25.1 10.9 51.5 63 4.1 39.4
01:45 1021 30.15 850 25.1 11 51.9 61 3.8 38.8
01:50 1020 30.12 850 25.1 11.2 52.2 62 4.2 39.6
01:55 1021 30.15 850 25.1 11.1 52 61 4 39.3
02:00 1021 30.15 850 25.1 11.2 52.1 62 4.2 39.5
02:05 1020 30.12 850 25.1 11.1 52 62 4.1 39.4
02:10 1020 30.12 850 25.1 11.1 51.9 64 4.5 40.1
02:15 1020 30.12 850 25.1 10.8 51.5 64 4.3 39.7
02:20 1020 30.12 850 25.1 10.8 51.5 64 4.4 39.9
02:25 1021 30.15 850 25.1 10.9 51.5 65 4.5 40.1
02:30 1021 30.15 850 25.1 10.9 51.6 65 4.5 40.2
02:35 1021 30.15 850 25.1 10.9 51.5 67 5 41
02:40 1021 30.15 850 25.1 10.7 51.3 66 4.7 40.5
02:45 1021 30.15 850 25.1 10.8 51.4 67 5 40.9
02:50 1020 30.12 850 25.1 10.6 51.1 68 4.9 40.8
02:55 1020 30.12 850 25.1 10.6 51 67 4.8 40.6
03:00 1020 30.12 850 25.1 10.6 51.2 66 4.6 40.3
03:05 1021 30.15 850 25.1 10.9 51.6 63 4.1 39.3
03:10 1020 30.12 850 25.1 11.3 52.3 57 3.2 37.8
03:15 1020 30.12 850 25.1 11.6 53 60 4.1 39.4
03:20 1021 30.15 850 25.1 11.5 52.8 62 4.6 40.3
03:25 1020 30.12 850 25.1 11.4 52.4 61 4.1 39.4
03:30 1021 30.15 850 25.1 11.3 52.3 65 5 41.1
03:35 1021 30.15 850 25.1 11.1 52.1 63 4.3 39.8
03:40 1021 30.15 850 25.1 11.3 52.3 64 4.7 40.5
03:45 1021 30.15 850 25.1 11.2 52.2 64 4.7 40.4
03:50 1021 30.15 850 25.1 11.2 52.2 64 4.7 40.5
03:55 1021 30.15 850 25.1 10.9 51.6 65 4.7 40.5
04:00 1021 30.15 850 25.1 10.7 51.3 65 4.5 40.1
04:05 1021 30.15 850 25.1 10.6 51.1 67 4.7 40.5
04:10 1021 30.15 850 25.1 10.5 50.8 66 4.4 39.9
04:15 1021 30.15 850 25.1 10.6 51.1 63 3.8 38.9
04:20 1021 30.15 850 25.1 10.7 51.2 65 4.3 39.8
04:25 1021 30.15 850 25.1 10.7 51.2 67 4.8 40.6
04:30 1021 30.15 850 25.1 10.6 51.1 66 4.6 40.2
04:35 1021 30.15 850 25.1 10.7 51.3 64 4.2 39.5
04:40 1021 30.15 850 25.1 10.8 51.4 65 4.5 40.2
04:45 1021 30.15 850 25.1 10.8 51.5 64 4.4 39.9
04:50 1021 30.15 850 25.1 10.9 51.7 64 4.3 39.8
04:55 1021 30.15 850 25.1 11.1 51.9 64 4.6 40.3
05:00 1021 30.15 850 25.1 11.2 52.1 64 4.6 40.3
05:05 1021 30.15 850 25.1 11.1 52 64 4.7 40.4
05:10 1021 30.15 850 25.1 10.9 51.7 67 5.1 41.3
05:15 1021 30.15 850 25.1 10.6 51.2 64 4.2 39.6
05:20 1021 30.15 850 25.1 10.9 51.5 62 3.8 38.9
05:25 1021 30.15 850 25.1 11.1 52 64 4.5 40.2
05:30 1021 30.15 850 25.1 11.3 52.4 61 4.1 39.3
05:35 1021 30.15 850 25.1 11.6 52.8 58 3.7 38.7
05:40 1021 30.15 850 25.1 11.8 53.2 57 3.6 38.4
05:45 1021 30.15 850 25.1 11.9 53.5 57 3.6 38.5
05:50 1021 30.15 850 25.1 12.1 53.8 60 4.5 40.2
05:55 1021 30.15 850 25.1 12.2 53.9 58 4.1 39.4
06:00 1021 30.15 850 25.1 12.1 53.8 57 3.9 39.1
06:05 1021 30.15 850 25.1 12.1 53.7 57 3.9 39
06:10 1021 30.15 850 25.1 12.1 53.8 57 3.9 39
06:15 1021 30.15 850 25.1 12.2 54 55 3.6 38.5
06:20 1021 30.15 850 25.1 12.3 54.2 55 3.5 38.3
06:25 1021 30.15 850 25.1 12.4 54.3 55 3.6 38.5
06:30 1021 30.15 850 25.1 12.5 54.6 54 3.4 38.2
06:35 1021 30.15 850 25.1 12.8 55 52 3.1 37.6
06:40 1021 30.15 850 25.1 13 55.3 52 3.4 38
06:45 1021 30.15 850 25.1 13.1 55.6 50 3 37.4
06:50 1021 30.15 850 25.1 13.2 55.7 48 2.4 36.3
06:55 1021 30.15 851 25.13 13.4 56 48 2.7 36.8
07:00 1021 30.15 851 25.13 13.6 56.4 48 2.8 37
07:05 1021 30.15 851 25.13 13.7 56.6 47 2.5 36.6
07:10 1021 30.15 851 25.13 13.6 56.5 47 2.6 36.7
07:15 1021 30.15 851 25.13 13.6 56.5 46 2.3 36.2
07:20 1022 30.18 851 25.13 13.5 56.4 47 2.6 36.6
07:25 1022 30.18 851 25.13 13.4 56.2 49 2.9 37.3
07:30 1021 30.15 851 25.13 13.4 56.1 48 2.6 36.8
07:35 1022 30.18 851 25.13 13.3 55.9 49 3 37.4
07:40 1022 30.18 851 25.13 13.2 55.7 51 3.3 37.9
07:45 1022 30.18 851 25.13 13.1 55.6 50 3.1 37.5
07:50 1022 30.18 851 25.13 13.2 55.7 49 2.7 36.9
07:55 1022 30.18 851 25.13 13.1 55.6 48 2.3 36.2
08:00 1022 30.18 851 25.13 13.2 55.8 48 2.6 36.7
08:05 1022 30.18 851 25.13 13.4 56 47 2.5 36.5
08:10 1022 30.18 851 25.13 13.5 56.4 48 2.7 36.9
08:15 1022 30.18 851 25.13 13.9 57 46 2.5 36.5
08:20 1022 30.18 851 25.13 14 57.2 45 2.2 36
08:25 1022 30.18 851 25.13 14.3 57.8 44 2.3 36.1
08:30 1022 30.18 851 25.13 14.4 58 44 2.4 36.4
08:35 1022 30.18 851 25.13 14.3 57.7 43 2.1 35.8
08:40 1022 30.18 851 25.13 14.3 57.8 45 2.5 36.5
08:45 1022 30.18 851 25.13 14.3 57.7 45 2.7 36.8
08:50 1022 30.18 851 25.13 14.3 57.8 46 3 37.4
08:55 1022 30.18 851 25.13 14.1 57.4 48 3.2 37.8
09:00 1022 30.18 851 25.13 14.3 57.7 45 2.6 36.7
09:05 1022 30.18 851 25.13 14.4 58 44 2.5 36.6
09:10 1022 30.18 851 25.13 14.5 58.1 46 3.1 37.6
09:15 1022 30.18 851 25.13 14.3 57.7 46 2.8 37
09:20 1022 30.18 851 25.13 14.3 57.7 47 3.1 37.7
09:25 1022 30.18 851 25.13 14.2 57.6 47 3.1 37.6
09:30 1022 30.18 851 25.13 15.3 59.5 43 2.8 37
09:35 1022 30.18 851 25.13 16.3 61.4 40 3 37.3
09:40 1022 30.18 851 25.13 16.3 61.4 44 4 39.3
09:45 1022 30.18 851 25.13 15.7 60.3 43 3.4 38.1
09:50 1022 30.18 851 25.13 15.9 60.7 41 2.8 37
09:55 1022 30.18 851 25.13 16.5 61.8 40 3 37.3
10:00 1022 30.18 851 25.13 16.5 61.8 42 3.8 38.9
10:05 1022 30.18 851 25.13 16.3 61.4 42 3.4 38
10:10 1022 30.18 851 25.13 16.2 61.1 42 3.2 37.8
10:15 1022 30.18 851 25.13 16.3 61.4 41 3.3 37.9
10:20 1022 30.18 851 25.13 16.7 62 41 3.6 38.5
10:25 1022 30.18 851 25.13 16.6 61.8 43 4 39.2
10:30 1022 30.18 851 25.13 16.7 62.1 43 4.1 39.4
10:35 1022 30.18 851 25.13 16.7 62.1 43 4.1 39.4
10:40 1022 30.18 851 25.13 16.5 61.7 42 3.7 38.6
10:45 1022 30.18 851 25.13 17.1 62.8 41 3.9 39
10:50 1022 30.18 851 25.13 17.3 63.2 41 4.2 39.6
10:55 1022 30.18 851 25.13 17.1 62.8 43 4.5 40.1
11:00 1022 30.18 851 25.13 17 62.7 43 4.4 39.9
11:05 1022 30.18 851 25.13 16.3 61.3 47 5 41
11:10 1022 30.18 851 25.13 16.1 61 46 4.5 40
11:15 1022 30.18 851 25.13 17.3 63.2 44 5 41
11:20 1022 30.18 851 25.13 17.5 63.6 43 5 41.1
11:25 1022 30.18 851 25.13 17.6 63.7 42 4.6 40.2
11:30 1022 30.18 851 25.13 17.7 63.8 43 5 41
11:35 1022 30.18 851 25.13 17.4 63.2 44 5.1 41.2
11:40 1022 30.18 851 25.13 17.1 62.9 46 5.4 41.7
11:45 1022 30.18 851 25.13 17.2 63 44 5 41
11:50 1022 30.18 851 25.13 17.4 63.3 46 5.8 42.4
11:55 1022 30.18 851 25.13 17.3 63.1 45 5.4 41.6
12:00 1022 30.18 851 25.13 18.3 64.9 42 5.1 41.2
12:05 1022 30.18 851 25.13 18.7 65.6 40 5 41
12:10 1022 30.18 851 25.13 18.8 65.8 40 5.2 41.3
12:15 1022 30.18 851 25.13 18.6 65.4 40 4.7 40.4
12:20 1022 30.18 851 25.13 19.2 66.6 36 3.8 38.8
12:25 1022 30.18 851 25.13 19.8 67.7 37 4.7 40.5
12:30 1022 30.18 851 25.13 19.7 67.4 37 4.8 40.7
12:35 1022 30.18 851 25.13 19.3 66.8 38 5 40.9
12:40 1022 30.18 851 25.13 19.7 67.5 37 4.7 40.5
12:45 1022 30.18 851 25.13 19.5 67 38 4.8 40.6
12:50 1022 30.18 851 25.13 19.2 66.6 37 4.5 40.1
12:55 1022 30.18 851 25.13 18.6 65.4 40 4.9 40.8
13:00 1022 30.18 851 25.13 18.4 65.1 40 4.7 40.5
13:05 1022 30.18 851 25.13 17.9 64.3 43 5.2 41.4
13:10 1022 30.18 851 25.13 17.7 63.9 42 4.9 40.8
13:15 1022 30.18 851 25.13 18 64.4 42 5.2 41.3
13:20 1022 30.18 851 25.13 17.7 63.8 43 5 41
13:25 1022 30.18 851 25.13 18 64.4 41 4.8 40.7
13:30 1022 30.18 851 25.13 19 66.1 39 4.7 40.5
13:35 1022 30.18 851 25.13 19.2 66.5 39 5 41
13:40 1022 30.18 851 25.13 19.3 66.8 38 4.7 40.5
13:45 1022 30.18 851 25.13 19.5 67 38 5 41
13:50 1022 30.18 851 25.13 19.6 67.3 38 5.3 41.5
13:55 1022 30.18 851 25.13 19.6 67.3 39 5.4 41.6
14:00 1022 30.18 851 25.13 19.1 66.4 41 5.7 42.3
14:05 1022 30.18 851 25.13 19.2 66.5 42 5.9 42.7
14:10 1022 30.18 851 25.13 18.6 65.4 42 5.4 41.8
14:15 1022 30.18 851 25.13 18.9 66.1 40 5.1 41.2
14:20 1022 30.18 851 25.13 18.7 65.7 41 5.3 41.6
14:25 1022 30.18 851 25.13 19.4 66.9 38 4.9 40.8
14:30 1022 30.18 851 25.13 19.7 67.5 40 5.9 42.5
14:35 1022 30.18 851 25.13 20.2 68.3 38 5.4 41.8
14:40 1022 30.18 851 25.13 20.2 68.3 41 6.7 44
14:45 1022 30.18 851 25.13 19.5 67.2 40 5.9 42.6
14:50 1022 30.18 851 25.13 19.5 67 39 5.3 41.6
14:55 1022 30.18 851 25.13 19.2 66.5 40 5.4 41.8
15:00 1022 30.18 851 25.13 19.3 66.8 38 5 40.9
15:05 1022 30.18 851 25.13 20 68 38 5.4 41.8
15:10 1022 30.18 851 25.13 19.6 67.3 38 4.9 40.9
15:15 1022 30.18 851 25.13 19.9 67.9 37 5 41.1
15:20 1022 30.18 851 25.13 19.9 67.8 38 5.2 41.3
15:25 1022 30.18 851 25.13 20.3 68.6 37 5.1 41.3
15:30 1022 30.18 851 25.13 20.3 68.5 38 5.6 42.1
15:35 1022 30.18 851 25.13 19.8 67.7 39 5.6 42
15:40 1022 30.18 851 25.13 19.9 67.8 37 5 41.1
15:45 1022 30.18 851 25.13 20 68 38 5.3 41.5
15:50 1022 30.18 851 25.13 19.8 67.6 39 5.6 42.2
15:55 1022 30.18 851 25.13 19.5 67.1 40 5.5 41.9
16:00 1022 30.18 851 25.13 19.5 67.2 40 5.7 42.3
16:05 1022 30.18 851 25.13 19.7 67.5 40 5.9 42.7
16:10 1022 30.18 851 25.13 19.6 67.2 41 6.3 43.3
16:15 1022 30.18 851 25.13 19.5 67 42 6.2 43.2
16:20 1022 30.18 851 25.13 19.6 67.2 41 6.1 43.1
16:25 1022 30.18 851 25.13 19.9 67.8 40 6 42.9
16:30 1022 30.18 851 25.13 20 68 40 6.3 43.3
16:35 1022 30.18 851 25.13 19.8 67.6 40 6.1 43
16:40 1022 30.18 851 25.13 19.6 67.2 41 6.1 43.1
16:45 1022 30.18 851 25.13 19.5 67 42 6.4 43.5
16:50 1022 30.18 851 25.13 19.2 66.6 43 6.5 43.6
16:55 1022 30.18 851 25.13 18.9 66 44 6.4 43.5
17:00 1022 30.18 851 25.13 18.6 65.5 45 6.5 43.7
17:05 1022 30.18 851 25.13 18.5 65.4 44 6.3 43.3
17:10 1022 30.18 851 25.13 18.5 65.2 45 6.4 43.5
17:15 1022 30.18 851 25.13 18.5 65.3 44 6.3 43.3
17:20 1022 30.18 851 25.13 18.9 66.1 43 6.3 43.4
17:25 1022 30.18 851 25.13 18.9 66 44 6.4 43.5
17:30 1022 30.18 851 25.13 19.2 66.6 43 6.6 43.8
17:35 1022 30.18 851 25.13 19.1 66.4 43 6.4 43.5
17:40 1022 30.18 851 25.13 18.7 65.7 44 6.5 43.7
17:45 1022 30.18 851 25.13 18.6 65.5 45 6.6 43.8
17:50 1022 30.18 851 25.13 18.7 65.7 44 6.3 43.3
17:55 1022 30.18 851 25.13 19.2 66.5 42 6.2 43.2
18:00 1022 30.18 851 25.13 19.3 66.7 42 6.3 43.4
18:05 1022 30.18 851 25.13 18.7 65.6 45 6.5 43.7
18:10 1022 30.18 851 25.13 18.3 65 45 6.4 43.5
18:15 1022 30.18 851 25.13 18.3 64.9 45 6.1 43.1
18:20 1022 30.18 851 25.13 18.2 64.8 45 6.1 42.9
18:25 1022 30.18 851 25.13 18.2 64.8 45 6.1 42.9
18:30 1022 30.18 851 25.13 18.3 64.9 45 6.2 43.1
18:35 1022 30.18 852 25.16 18.3 65 46 6.5 43.7
18:40 1022 30.18 852 25.16 18.6 65.5 44 6.2 43.2
18:45 1022 30.18 852 25.16 18.7 65.7 44 6.3 43.3
18:50 1022 30.18 852 25.16 18.8 65.8 44 6.5 43.7
18:55 1022 30.18 852 25.16 18.8 65.8 44 6.2 43.2
19:00 1022 30.18 852 25.16 18.8 65.8 47 7.3 45.2
19:05 1023 30.21 852 25.16 18.6 65.5 44 6.2 43.2
19:10 1023 30.21 852 25.16 18.5 65.3 44 6.3 43.3
19:15 1023 30.21 852 25.16 18.4 65.2 45 6.5 43.7
19:20 1023 30.21 852 25.16 18.4 65.2 46 6.6 43.9
19:25 1023 30.21 852 25.16 18.4 65.1 46 6.6 43.9
19:30 1023 30.21 852 25.16 18.3 64.9 46 6.7 44
19:35 1023 30.21 852 25.16 18 64.4 47 6.7 44.1
19:40 1023 30.21 852 25.16 17.7 63.9 48 6.7 44.1
19:45 1023 30.21 852 25.16 17.4 63.4 48 6.6 43.8
19:50 1023 30.21 852 25.16 17.2 63 50 6.7 44.1
19:55 1023 30.21 852 25.16 17 62.6 49 6.4 43.6
20:00 1023 30.21 852 25.16 16.8 62.2 50 6.5 43.7
20:05 1023 30.21 852 25.16 16.7 62.1 50 6.4 43.6
20:10 1023 30.21 852 25.16 16.5 61.8 51 6.4 43.6
20:15 1023 30.21 852 25.16 16.4 61.6 50 6.1 42.9
20:20 1023 30.21 852 25.16 16.3 61.4 51 6.1 43.1
20:25 1023 30.21 852 25.16 16.3 61.3 50 6 42.8
20:30 1023 30.21 852 25.16 16.2 61.2 51 6.1 43
20:35 1023 30.21 852 25.16 16.1 61.1 51 6.1 43
20:40 1023 30.21 852 25.16 16 60.8 52 6.2 43.1
20:45 1023 30.21 853 25.19 15.9 60.6 52 6.2 43.1
20:50 1023 30.21 853 25.19 15.7 60.3 53 6.3 43.3
20:55 1023 30.21 853 25.19 15.6 60.1 54 6.5 43.6
21:00 1024 30.24 853 25.19 15.5 59.9 55 6.5 43.6
21:05 1024 30.24 853 25.19 15.4 59.7 55 6.4 43.5
21:10 1024 30.24 853 25.19 15.4 59.7 55 6.5 43.7
21:15 1024 30.24 853 25.19 15.4 59.6 55 6.5 43.7
21:20 1024 30.24 853 25.19 15.3 59.6 55 6.5 43.7
21:25 1024 30.24 853 25.19 15.3 59.5 55 6.4 43.6
21:30 1024 30.24 853 25.19 15.3 59.5 55 6.5 43.6
21:35 1024 30.24 853 25.19 15.2 59.4 54 6.2 43.1
21:40 1024 30.24 853 25.19 15.3 59.5 55 6.4 43.6
21:45 1024 30.24 853 25.19 15.2 59.3 55 6.4 43.5
21:50 1024 30.24 853 25.19 15.1 59.3 55 6.4 43.4
21:55 1024 30.24 853 25.19 15.2 59.3 55 6.4 43.4
22:00 1024 30.24 853 25.19 15.1 59.2 55 6.3 43.3
22:05 1024 30.24 853 25.19 15.1 59.1 55 6.1 43
22:10 1024 30.24 853 25.19 15 59 55 6.1 42.9
22:15 1024 30.24 853 25.19 14.9 58.9 55 6.1 43.1
22:20 1024 30.24 853 25.19 14.8 58.6 56 6.1 43.1
22:25 1024 30.24 854 25.22 14.7 58.4 56 6.1 43
22:30 1024 30.24 854 25.22 14.5 58.1 57 6.1 42.9
22:35 1024 30.24 854 25.22 14.4 57.9 57 6 42.9
22:40 1024 30.24 854 25.22 14.3 57.7 57 6.1 42.9
22:45 1024 30.24 854 25.22 14.3 57.7 57 6 42.8
22:50 1024 30.24 854 25.22 14.2 57.5 58 6.2 43.1
22:55 1024 30.24 854 25.22 14.1 57.3 59 6.2 43.1
23:00 1024 30.24 854 25.22 13.9 57.1 59 6.2 43.1
23:05 1025 30.27 854 25.22 13.8 56.8 60 6.2 43.1
23:10 1025 30.27 854 25.22 13.7 56.7 60 6.1 43.1
23:15 1025 30.27 854 25.22 13.6 56.6 61 6.3 43.3
23:20 1025 30.27 854 25.22 13.6 56.4 61 6.3 43.4
23:25 1025 30.27 854 25.22 13.5 56.2 62 6.4 43.5
23:30 1025 30.27 854 25.22 13.4 56 62 6.3 43.3
23:35 1025 30.27 854 25.22 13.3 55.9 63 6.4 43.5
23:40 1025 30.27 854 25.22 13.4 56.1 62 6.3 43.3
23:45 1025 30.27 854 25.22 13.4 56.1 62 6.4 43.5
23:50 1025 30.27 854 25.22 13.3 55.9 63 6.4 43.5
23:55 1025 30.27 854 25.22 13.2 55.7 63 6.3 43.3
24:00 1025 30.27 854 25.22 13 55.4 64 6.4 43.5